Time;durP1;ratioP1;P1;durP2;ratioP2;P2;SDS_P1;SDS_P2;PMS_P1;PMS_P2;Temp;Humidity;BMP_temperature;BMP_pressure;BME280_temperature;BME280_humidity;BME280_pressure;Samples;Min_cycle;Max_cycle;Signal;HPM_P1;HPM_P2
2021/12/19 00:02:00;;;;;;;;;;;;;;;;;;;;;
2021/12/19 00:12:28;;;;;;;7.10;6.20;;;;;;;4.19;85.91;100202.36;207853;1315;140590;-68
2021/12/19 00:17:38;;;;;;;5.50;4.40;;;;;;;4.21;86.24;100197.92;207640;1316;141113;-71
2021/12/19 00:22:42;;;;;;;3.90;3.60;;;;;;;4.26;86.01;100186.32;208263;1316;140015;-69
2021/12/19 00:27:52;;;;;;;7.40;4.50;;;;;;;4.27;85.85;100168.45;208338;1317;139514;-70
2021/12/19 00:33:00;;;;;;;8.60;5.30;;;;;;;4.26;86.11;100164.34;208553;1315;139174;-69
2021/12/19 00:38:08;;;;;;;6.50;4.20;;;;;;;4.29;86.04;100171.91;208413;1315;140053;-70
2021/12/19 00:43:33;;;;;;;4.90;4.40;;;;;;;4.29;85.95;100180.89;207677;1316;141032;-73
2021/12/19 00:48:49;;;;;;;5.80;4.00;;;;;;;4.28;86.16;100186.95;207917;1316;139578;-71
2021/12/19 00:53:54;;;;;;;7.80;7.10;;;;;;;4.30;86.16;100158.96;208481;1315;139522;-72
2021/12/19 00:59:40;;;;;;;;;;;;;;;;;;;;;
2021/12/19 01:04:56;;;;;;;7.50;5.00;;;;;;;4.33;85.84;100131.65;208454;1316;141763;-68
2021/12/19 01:10:00;;;;;;;7.20;4.60;;;;;;;4.35;85.98;100128.23;209481;1316;140179;-69
2021/12/19 01:15:23;;;;;;;7.20;5.40;;;;;;;4.37;85.95;100123.98;209331;1317;139650;-68
2021/12/19 01:20:28;;;;;;;6.70;4.90;;;;;;;4.39;85.56;100119.66;209171;1316;142730;-68
2021/12/19 01:25:53;;;;;;;3.60;3.30;;;;;;;4.37;85.39;100108.80;209095;1317;141087;-71
2021/12/19 01:31:09;;;;;;;8.40;5.60;;;;;;;4.33;85.59;100103.64;208813;1316;139087;-70
2021/12/19 01:36:18;;;;;;;5.00;4.40;;;;;;;4.33;85.60;100098.52;207671;1316;140969;-69
2021/12/19 01:41:29;;;;;;;2.20;2.00;;;;;;;4.39;85.81;100087.30;208144;1316;141973;-71
2021/12/19 01:46:34;;;;;;;2.60;2.40;;;;;;;4.36;85.39;100064.37;208015;1321;139745;-70
2021/12/19 01:52:01;;;;;;;3.00;2.70;;;;;;;4.33;85.44;100046.27;208322;1315;140359;-68
2021/12/19 01:57:07;;;;;;;2.80;2.60;;;;;;;4.33;85.67;100023.77;208048;1316;140753;-68
2021/12/19 02:02:15;;;;;;;3.20;2.90;;;;;;;4.32;85.61;100017.58;207740;1316;140670;-67
2021/12/19 02:07:33;;;;;;;3.30;3.00;;;;;;;4.33;85.65;99994.05;207948;1316;139934;-67
2021/12/19 02:12:44;;;;;;;3.90;3.60;;;;;;;4.31;85.93;99980.62;207809;1315;140309;-70
2021/12/19 02:17:51;;;;;;;5.20;3.40;;;;;;;4.29;85.83;99963.00;207711;1316;139256;-69
2021/12/19 02:22:57;;;;;;;3.00;2.60;;;;;;;4.30;85.97;99926.70;207120;1315;140853;-72
2021/12/19 02:28:17;;;;;;;2.70;2.50;;;;;;;4.27;86.03;99924.34;207040;1316;139224;-69
2021/12/19 02:33:27;;;;;;;4.10;3.60;;;;;;;4.26;86.10;99913.46;208170;1316;139486;-68
2021/12/19 02:49:56;;;;;;;3.40;3.10;;;;;;;4.35;86.19;99869.02;208106;1316;139327;-68
2021/12/19 02:55:14;;;;;;;4.60;4.20;;;;;;;4.37;86.14;99864.77;207748;1317;139023;-70
2021/12/19 03:00:35;;;;;;;3.90;2.90;;;;;;;4.38;86.23;99870.98;208265;1316;140159;-73
2021/12/19 03:05:40;;;;;;;6.00;4.00;;;;;;;4.38;86.45;99859.14;207592;1316;141994;-69
2021/12/19 03:21:45;;;;;;;2.80;2.60;;;;;;;4.53;86.51;99841.71;208824;1316;141067;-69
2021/12/19 03:26:49;;;;;;;7.90;3.40;;;;;;;4.56;86.69;99832.75;208965;1317;140108;-68
2021/12/19 03:32:00;;;;;;;5.00;4.10;;;;;;;4.59;86.62;99821.58;208810;1316;141644;-68
2021/12/19 03:37:14;;;;;;;4.30;3.90;;;;;;;4.64;86.70;99816.30;209369;1316;142053;-69
2021/12/19 03:42:37;;;;;;;3.90;3.20;;;;;;;4.68;86.59;99797.30;208338;1315;141369;-73
2021/12/19 03:48:15;;;;;;;;;;;;;;;;;;;;;
2021/12/19 03:53:15;;;;;;;6.30;4.20;;;;;;;4.68;86.47;99771.07;207059;1318;141662;-70
2021/12/19 03:59:00;;;;;;;5.40;4.70;;;;;;;4.67;86.69;99775.65;208059;1316;142421;-71
2021/12/19 04:04:05;;;;;;;5.30;4.80;;;;;;;4.71;86.90;99768.64;208159;1316;140543;-70
2021/12/19 04:09:15;;;;;;;4.70;4.30;;;;;;;4.76;86.89;99770.46;208550;1317;140395;-71
2021/12/19 04:14:22;;;;;;;9.30;5.50;;;;;;;4.80;87.07;99756.06;207411;1316;140163;-71
2021/12/19 04:19:30;;;;;;;6.00;5.10;;;;;;;4.82;86.79;99746.73;207763;1316;141000;-70
2021/12/19 05:47:09;;;;;;;10.50;5.00;;;;;;;4.17;87.99;99683.15;206031;1337;139037;-67
2021/12/19 05:52:32;;;;;;;;;;;;;;;;;;;;;
2021/12/19 05:57:37;;;;;;;7.00;4.60;;;;;;;4.50;87.37;99697.85;207469;1326;139843;-65
2021/12/19 06:02:41;;;;;;;14.90;4.70;;;;;;;4.60;87.17;99703.32;207084;1329;140447;-67
2021/12/19 06:07:48;;;;;;;12.10;5.60;;;;;;;4.72;86.99;99706.54;207541;1323;139739;-67
2021/12/19 06:12:50;;;;;;;5.90;5.40;;;;;;;4.81;87.01;99702.52;206072;1328;141059;-67
2021/12/19 06:17:53;;;;;;;6.30;5.30;;;;;;;4.83;86.46;99700.24;207094;1322;139831;-66
2021/12/19 06:23:03;;;;;;;8.20;4.10;;;;;;;4.85;86.59;99700.17;207431;1323;138919;-66
2021/12/19 06:28:22;;;;;;;4.60;4.20;;;;;;;4.88;86.58;99700.34;205807;1324;140214;-67
2021/12/19 06:33:24;;;;;;;7.70;4.80;;;;;;;4.91;86.61;99703.14;206961;1323;140110;-67
2021/12/19 06:38:40;;;;;;;5.20;3.50;;;;;;;4.91;86.47;99696.80;207125;1323;138921;-65
2021/12/19 06:44:24;;;;;;;9.30;2.70;;;;;;;4.88;86.54;99686.66;208011;1316;139645;-66
2021/12/19 06:49:40;;;;;;;6.20;5.20;;;;;;;4.85;86.54;99681.36;208180;1316;138266;-66
2021/12/19 06:54:50;;;;;;;3.80;2.60;;;;;;;4.87;86.38;99672.56;207893;1316;141473;-66
2021/12/19 06:59:54;;;;;;;4.50;3.60;;;;;;;4.87;86.52;99680.97;207782;1316;236744;-65
2021/12/19 07:04:57;;;;;;;10.00;6.50;;;;;;;4.85;86.57;99676.61;207191;1316;138755;-65
2021/12/19 07:10:04;;;;;;;4.90;3.30;;;;;;;4.86;86.64;99678.77;207292;1316;140141;-66
2021/12/19 07:15:18;;;;;;;4.60;2.70;;;;;;;4.86;86.60;99680.03;208099;1316;140045;-66
2021/12/19 07:20:31;;;;;;;5.30;2.80;;;;;;;4.85;86.69;99679.17;207647;1316;139497;-69
2021/12/19 07:25:39;;;;;;;6.50;3.70;;;;;;;4.87;86.67;99679.06;207260;1316;140364;-67
2021/12/19 07:30:57;;;;;;;4.80;3.20;;;;;;;4.89;86.50;99680.04;208007;1316;138923;-67
2021/12/19 07:36:03;;;;;;;9.60;3.50;;;;;;;4.85;86.51;99674.34;207369;1316;138924;-66
2021/12/19 07:41:29;;;;;;;6.30;4.30;;;;;;;4.90;86.55;99677.02;208724;1315;139555;-66
2021/12/19 07:46:39;;;;;;;3.00;2.70;;;;;;;4.92;86.67;99669.77;208955;1317;138678;-66
2021/12/19 07:51:47;;;;;;;5.80;3.30;;;;;;;4.90;86.56;99668.11;209309;1316;138540;-66
2021/12/19 07:56:51;;;;;;;5.10;3.50;;;;;;;4.92;86.44;99669.05;209836;1317;141109;-67
2021/12/19 08:02:04;;;;;;;10.50;3.30;;;;;;;4.96;86.24;99667.43;209510;1316;139953;-67
2021/12/19 08:07:38;;;;;;;;;;;;;;;;;;;;;
2021/12/19 08:12:37;;;;;;;5.90;4.30;;;;;;;4.92;86.26;99649.71;208885;1316;140592;-67
2021/12/19 08:17:43;;;;;;;7.00;6.20;;;;;;;4.93;86.20;99650.08;208544;1316;139820;-66
2021/12/19 08:22:48;;;;;;;4.20;3.20;;;;;;;4.97;86.37;99648.86;208344;1316;140019;-67
2021/12/19 08:27:53;;;;;;;3.60;3.30;;;;;;;4.95;86.31;99643.73;208733;1317;139406;-66
2021/12/19 08:32:57;;;;;;;4.60;2.70;;;;;;;4.96;86.18;99645.09;207185;1316;139382;-65
2021/12/19 08:38:02;;;;;;;7.80;5.90;;;;;;;4.91;86.32;99643.04;207025;1316;139450;-67
2021/12/19 08:43:18;;;;;;;7.60;4.10;;;;;;;4.92;86.53;99637.16;207898;1316;138686;-67
2021/12/19 08:49:09;;;;;;;4.90;2.40;;;;;;;4.96;86.28;99630.38;207911;1316;139782;-67
2021/12/19 08:54:16;;;;;;;12.30;3.90;;;;;;;4.95;86.49;99630.41;207849;1316;140300;-67
2021/12/19 08:59:31;;;;;;;3.90;3.40;;;;;;;4.99;86.58;99631.44;207182;1316;139692;-67
2021/12/19 09:04:37;;;;;;;5.10;3.50;;;;;;;5.03;86.32;99623.56;207096;1316;140463;-67
2021/12/19 09:09:50;;;;;;;5.00;3.50;;;;;;;5.04;86.31;99619.58;206867;1315;141606;-66
2021/12/19 09:14:55;;;;;;;7.20;3.10;;;;;;;4.99;86.28;99621.23;207468;1315;140067;-67
2021/12/19 09:19:58;;;;;;;9.10;5.50;;;;;;;4.99;86.04;99619.89;207887;1316;140594;-64
2021/12/19 09:25:05;;;;;;;6.00;4.60;;;;;;;5.02;86.01;99625.83;207466;1316;140640;-65
2021/12/19 09:30:08;;;;;;;6.00;5.40;;;;;;;5.01;86.30;99627.21;207418;1316;140338;-65
2021/12/19 09:35:14;;;;;;;10.60;5.10;;;;;;;5.02;86.23;99618.27;207660;1316;140499;-65
2021/12/19 09:40:22;;;;;;;6.60;5.90;;;;;;;5.04;85.98;99617.02;207732;1315;140034;-65
2021/12/19 09:45:33;;;;;;;9.00;5.30;;;;;;;5.11;86.12;99604.55;207193;1315;207044;-69
2021/12/19 09:50:50;;;;;;;;;;;;;;;;;;;;;
2021/12/19 09:55:53;;;;;;;8.00;5.30;;;;;;;5.16;85.76;99577.45;208376;1316;138986;-67
2021/12/19 10:01:10;;;;;;;10.40;5.90;;;;;;;5.20;85.97;99564.38;209293;1315;139949;-66
2021/12/19 10:06:34;;;;;;;9.20;4.60;;;;;;;5.28;85.86;99549.62;208850;1316;141721;-67
2021/12/19 10:11:52;;;;;;;7.90;5.00;;;;;;;5.35;85.45;99539.52;209336;1317;139877;-68
2021/12/19 10:17:10;;;;;;;7.60;3.00;;;;;;;5.35;85.47;99526.32;209329;1316;140410;-68
2021/12/19 10:22:48;;;;;;;7.60;4.70;;;;;;;5.44;85.53;99521.92;208548;1317;141195;-65
2021/12/19 10:28:27;;;;;;;;;;;;;;;;;;;;;
2021/12/19 10:33:36;;;;;;;5.10;4.20;;;;;;;5.59;85.10;99497.41;208797;1316;140864;-68
2021/12/19 10:38:58;;;;;;;5.90;3.90;;;;;;;5.62;85.02;99486.71;207660;1315;140028;-65
2021/12/19 10:49:43;;;;;;;4.20;3.20;;;;;;;5.72;85.05;99478.67;207568;1316;138908;-65
2021/12/19 10:55:18;;;;;;;3.90;3.60;;;;;;;5.73;84.90;99468.62;207847;1316;138688;-65
2021/12/19 11:00:27;;;;;;;6.00;4.80;;;;;;;5.73;84.88;99462.84;207838;1315;139932;-68
2021/12/19 11:05:47;;;;;;;10.50;3.90;;;;;;;5.69;84.60;99457.31;207618;1315;139490;-65
2021/12/19 11:10:54;;;;;;;9.50;5.20;;;;;;;5.70;84.57;99450.98;207195;1316;138948;-66
2021/12/19 11:16:07;;;;;;;;;;;;;;;;;;;;;
2021/12/19 11:21:10;;;;;;;4.80;3.40;;;;;;;5.73;84.40;99438.64;207891;1316;139116;-66
2021/12/19 11:26:16;;;;;;;3.80;3.30;;;;;;;5.75;84.35;99437.23;207269;1316;139731;-66
2021/12/19 11:31:20;;;;;;;6.40;4.10;;;;;;;5.74;84.33;99425.45;207233;1316;161518;-65
2021/12/19 11:36:27;;;;;;;10.30;4.60;;;;;;;5.70;84.25;99421.02;207367;1315;140319;-65
2021/12/19 11:41:34;;;;;;;6.40;3.00;;;;;;;5.63;83.83;99422.15;207273;1316;140539;-65
2021/12/19 11:46:56;;;;;;;6.50;3.90;;;;;;;5.59;84.20;99412.68;208142;1317;140037;-65
2021/12/19 11:52:30;;;;;;;5.90;3.50;;;;;;;5.56;83.74;99404.40;207602;1315;140474;-65
2021/12/19 11:57:34;;;;;;;7.70;4.30;;;;;;;5.57;84.00;99405.21;207301;1316;140149;-64
2021/12/19 12:02:38;;;;;;;9.20;6.30;;;;;;;5.58;84.11;99392.43;208401;1315;139853;-65
2021/12/19 12:08:10;;;;;;;11.60;6.70;;;;;;;5.56;83.78;99385.40;208929;1315;139622;-66
2021/12/19 12:13:31;;;;;;;10.40;6.20;;;;;;;5.56;83.68;99378.89;209343;1316;140057;-67
2021/12/19 12:18:44;;;;;;;5.20;3.90;;;;;;;5.59;83.72;99380.11;209507;1317;139658;-67
2021/12/19 12:24:02;;;;;;;7.40;4.60;;;;;;;5.60;83.32;99367.08;209006;1315;139936;-67
2021/12/19 12:29:17;;;;;;;;;;;;;;;5.59;83.32;99355.86;208184;1315;139494;-67
2021/12/19 12:34:20;;;;;;;7.90;3.80;;;;;;;5.59;83.09;99346.10;208985;1315;127264;-69
2021/12/19 12:39:27;;;;;;;9.20;4.30;;;;;;;5.59;83.26;99336.53;208537;1316;141031;-67
2021/12/19 12:45:00;;;;;;;;;;;;;;;;;;;;;
2021/12/19 12:50:05;;;;;;;9.80;6.30;;;;;;;5.61;83.10;99324.77;208666;1316;127959;-67
2021/12/19 12:55:14;;;;;;;7.40;4.20;;;;;;;5.63;83.11;99320.08;208064;1315;141315;-69
2021/12/19 13:00:19;;;;;;;13.60;5.10;;;;;;;5.61;82.93;99311.02;207216;1315;139781;-67
2021/12/19 13:05:27;;;;;;;6.60;6.00;;;;;;;5.60;82.73;99310.98;207159;1315;139542;-67
2021/12/19 13:10:30;;;;;;;6.20;3.50;;;;;;;5.55;82.64;99305.92;208227;1315;139659;-67
2021/12/19 13:15:41;;;;;;;7.60;4.10;;;;;;;5.53;82.63;99308.87;208057;1315;139252;-69
2021/12/19 13:21:03;;;;;;;4.60;3.40;;;;;;;5.54;82.77;99305.16;207443;1315;139403;-67
2021/12/19 13:26:19;;;;;;;6.60;3.90;;;;;;;5.55;82.50;99298.36;207000;1316;140148;-68
2021/12/19 13:31:23;;;;;;;10.70;4.40;;;;;;;5.51;82.34;99288.84;208058;1313;138595;-68
2021/12/19 13:36:32;;;;;;;7.20;3.30;;;;;;;5.49;82.48;99279.06;207461;1316;140302;-67
2021/12/19 13:41:35;;;;;;;6.10;3.90;;;;;;;5.46;82.62;99276.84;208477;1316;138613;-68
2021/12/19 13:46:38;;;;;;;10.30;3.40;;;;;;;5.44;82.29;99277.02;207670;1316;139271;-69
2021/12/19 13:51:55;;;;;;;5.60;3.10;;;;;;;5.43;82.32;99280.64;206860;1315;673503;-68
2021/12/19 13:56:59;;;;;;;6.20;3.80;;;;;;;5.38;82.12;99274.81;208141;1318;139370;-70
2021/12/19 14:02:09;;;;;;;7.50;3.00;;;;;;;5.33;82.11;99266.82;207397;1315;138922;-66
2021/12/19 14:07:17;;;;;;;7.70;4.30;;;;;;;5.30;82.30;99275.41;207355;1313;140501;-67
2021/12/19 14:18:32;;;;;;;;;;;;;;;;;;;;;
2021/12/19 14:23:45;;;;;;;7.10;3.30;;;;;;;5.17;82.61;99257.73;208995;1313;139091;-68
2021/12/19 14:28:53;;;;;;;6.20;4.50;;;;;;;5.15;82.52;99261.96;208032;1314;139069;-67
2021/12/19 14:34:02;;;;;;;6.00;3.00;;;;;;;5.17;82.96;99256.96;209012;1314;140513;-69
2021/12/19 14:39:12;;;;;;;9.00;3.70;;;;;;;5.15;83.14;99253.15;208618;1317;140911;-69
2021/12/19 14:44:23;;;;;;;10.10;3.90;;;;;;;5.17;82.96;99245.17;209157;1318;141105;-69
2021/12/19 14:49:47;;;;;;;6.40;2.80;;;;;;;5.18;82.94;99252.09;207872;1316;140900;-70
2021/12/19 14:55:10;;;;;;;7.40;4.90;;;;;;;5.14;83.02;99245.52;207122;1316;141911;-68
2021/12/19 15:00:16;;;;;;;7.80;3.80;;;;;;;5.09;83.41;99246.92;207926;1315;140674;-72
2021/12/19 15:05:44;;;;;;;4.40;3.10;;;;;;;5.07;83.08;99254.52;207318;1315;140122;-71
2021/12/19 15:10:50;;;;;;;3.20;1.90;;;;;;;5.05;83.29;99259.73;208461;1315;141469;-70
2021/12/19 15:16:34;;;;;;;5.30;4.00;;;;;;;4.94;83.29;99261.35;207505;1315;139272;-71
2021/12/19 15:21:41;;;;;;;2.00;1.70;;;;;;;4.80;83.19;99260.41;208074;1315;140207;-73
2021/12/19 15:27:05;;;;;;;3.50;1.80;;;;;;;4.69;83.15;99273.71;208188;1315;140715;-70
2021/12/19 15:32:12;;;;;;;2.40;2.00;;;;;;;4.56;83.08;99291.23;207297;1316;139252;-71
2021/12/19 15:37:15;;;;;;;0.60;0.60;;;;;;;4.33;82.40;99281.13;207640;1315;139687;-69
2021/12/19 15:42:27;;;;;;;1.00;0.80;;;;;;;4.08;82.41;99289.52;207313;1316;140217;-66
2021/12/19 15:47:55;;;;;;;1.60;1.00;;;;;;;3.94;82.70;99284.24;206778;1316;139046;-66
2021/12/19 15:53:00;;;;;;;1.20;1.20;;;;;;;3.93;82.97;99262.45;206991;1318;139453;-66
2021/12/19 15:58:07;;;;;;;2.40;2.10;;;;;;;3.95;83.07;99249.27;207704;1316;139400;-67
2021/12/19 16:03:33;;;;;;;116.00;43.30;;;;;;;3.94;83.14;99234.98;206818;1315;138900;-67
2021/12/19 16:08:41;;;;;;;7.00;4.70;;;;;;;3.96;83.17;99224.20;208423;1315;140113;-66
2021/12/19 16:13:44;;;;;;;6.30;4.10;;;;;;;3.95;83.02;99228.49;208969;1315;140463;-69
2021/12/19 16:19:00;;;;;;;7.90;4.80;;;;;;;3.91;83.36;99220.30;207680;1315;139680;-66
2021/12/19 16:24:11;;;;;;;8.10;3.10;;;;;;;3.88;83.10;99221.15;207120;1316;139257;-69
2021/12/19 16:29:16;;;;;;;4.80;3.80;;;;;;;3.90;83.19;99233.89;208837;1315;141035;-68
2021/12/19 16:34:19;;;;;;;6.50;4.50;;;;;;;3.90;83.30;99238.72;209064;1316;139788;-68
2021/12/19 16:39:24;;;;;;;3.90;2.10;;;;;;;3.86;83.08;99255.96;208438;1318;139870;-67
2021/12/19 16:44:29;;;;;;;3.60;3.20;;;;;;;3.83;82.87;99282.97;208916;1315;141555;-70
2021/12/19 16:49:32;;;;;;;4.00;2.30;;;;;;;3.77;82.69;99294.52;209306;1313;140601;-67
2021/12/19 16:54:38;;;;;;;6.10;2.90;;;;;;;3.69;82.84;99300.47;209288;1316;142441;-66
2021/12/19 16:59:41;;;;;;;6.90;2.70;;;;;;;3.62;82.76;99304.08;207458;1316;140108;-67
2021/12/19 17:04:44;;;;;;;3.10;2.70;;;;;;;3.59;82.89;99309.23;207644;1315;140691;-67
2021/12/19 17:09:47;;;;;;;9.50;3.60;;;;;;;3.51;82.91;99318.48;208217;1316;140785;-67
2021/12/19 17:14:52;;;;;;;5.80;2.40;;;;;;;3.41;82.74;99304.98;207095;1315;140892;-71
2021/12/19 17:19:58;;;;;;;3.70;2.10;;;;;;;3.35;82.65;99315.77;208964;1315;142629;-66
2021/12/19 17:25:05;;;;;;;5.10;2.50;;;;;;;3.26;82.83;99336.69;207628;1315;140503;-66
2021/12/19 17:30:12;;;;;;;8.10;2.80;;;;;;;3.15;82.51;99330.23;207965;1315;140827;-68
2021/12/19 17:35:16;;;;;;;;;;;;;;;3.08;82.44;99340.66;207681;1315;141581;-67
2021/12/19 17:40:30;;;;;;;5.40;2.30;;;;;;;2.95;82.56;99334.45;207820;1315;126537;-67
2021/12/19 17:45:34;;;;;;;6.20;3.20;;;;;;;2.85;82.44;99338.84;207054;1315;139635;-67
2021/12/19 17:50:37;;;;;;;2.60;2.00;;;;;;;2.80;82.12;99345.21;208944;1315;140960;-66
2021/12/19 17:55:41;;;;;;;3.30;2.30;;;;;;;2.74;82.33;99352.37;207168;1317;139032;-69
2021/12/19 18:00:48;;;;;;;9.70;3.50;;;;;;;2.68;82.43;99360.10;207443;1316;139255;-64
2021/12/19 18:05:54;;;;;;;9.20;3.60;;;;;;;2.65;82.16;99371.17;207127;1315;140723;-66
2021/12/19 18:11:01;;;;;;;5.40;2.80;;;;;;;2.61;81.89;99375.88;207162;1315;138929;-65
2021/12/19 18:16:04;;;;;;;2.40;2.00;;;;;;;2.53;82.06;99378.81;208127;1315;139698;-66
2021/12/19 18:21:07;;;;;;;3.80;1.80;;;;;;;2.45;81.53;99384.63;208687;1315;140640;-68
2021/12/19 18:26:11;;;;;;;8.30;4.70;;;;;;;2.38;81.82;99388.10;208037;1315;139244;-65
2021/12/19 18:31:40;;;;;;;4.50;2.20;;;;;;;2.31;81.83;99388.80;208235;1315;139932;-66
2021/12/19 18:36:49;;;;;;;8.50;2.40;;;;;;;2.25;81.67;99398.39;207325;1316;140667;-66
2021/12/19 18:42:04;;;;;;;8.20;4.10;;;;;;;2.23;81.83;99403.95;207808;1315;139943;-66
2021/12/19 18:52:53;;;;;;;5.40;3.30;;;;;;;2.14;81.57;99422.03;209788;1315;139006;-68
2021/12/19 18:58:12;;;;;;;;;;;;;;;2.12;81.46;99421.01;208829;1316;140292;-68
2021/12/19 19:08:45;;;;;;;10.30;3.70;;;;;;;2.03;81.50;99420.96;208377;1315;138959;-68
2021/12/19 19:13:57;;;;;;;6.50;5.20;;;;;;;1.99;81.56;99417.27;207660;1315;139571;-68
2021/12/19 19:19:08;;;;;;;4.80;2.40;;;;;;;1.91;81.08;99423.98;208240;1315;139369;-66
2021/12/19 19:24:13;;;;;;;5.70;2.30;;;;;;;1.86;81.33;99425.05;207997;1314;140186;-66
2021/12/19 19:29:20;;;;;;;8.40;2.60;;;;;;;1.82;81.15;99428.63;207911;1316;139721;-65
2021/12/19 19:34:27;;;;;;;5.50;3.70;;;;;;;1.77;81.52;99436.81;207713;1315;139602;-65
2021/12/19 19:39:51;;;;;;;8.40;3.50;;;;;;;1.71;81.28;99440.71;206847;1315;140748;-65
2021/12/19 19:50:29;;;;;;;10.20;3.30;;;;;;;1.63;81.25;99448.66;207231;1315;140192;-65
2021/12/19 19:55:37;;;;;;;5.70;4.40;;;;;;;1.55;81.65;99454.99;207189;1316;138843;-65
2021/12/19 20:00:45;;;;;;;9.20;3.60;;;;;;;1.46;81.19;99452.75;207745;1315;139174;-66
2021/12/19 20:06:01;;;;;;;11.70;3.80;;;;;;;1.46;81.11;99456.99;207407;1315;140094;-66
2021/12/19 20:11:04;;;;;;;8.00;5.30;;;;;;;1.39;81.35;99463.95;208020;1315;162092;-65
2021/12/19 20:16:11;;;;;;;3.10;2.40;;;;;;;1.32;81.05;99457.89;208059;1315;139380;-66
2021/12/19 20:21:18;;;;;;;4.60;2.50;;;;;;;1.26;81.51;99466.73;208195;1315;139283;-65
2021/12/19 20:26:22;;;;;;;8.50;4.20;;;;;;;1.26;81.14;99463.02;208089;1315;141793;-66
2021/12/19 20:31:24;;;;;;;4.00;2.70;;;;;;;1.24;81.31;99462.05;207476;1315;140994;-65
2021/12/19 20:36:28;;;;;;;9.90;3.40;;;;;;;1.18;81.26;99460.41;207803;1316;141612;-65
2021/12/19 20:41:39;;;;;;;6.80;4.20;;;;;;;1.11;81.46;99462.61;208149;1315;140590;-66
2021/12/19 20:46:49;;;;;;;7.80;3.30;;;;;;;1.10;81.11;99468.65;208097;1315;139877;-66
2021/12/19 20:51:55;;;;;;;7.00;3.50;;;;;;;1.13;81.43;99464.10;207433;1315;139335;-66
2021/12/19 20:56:58;;;;;;;4.00;2.70;;;;;;;1.12;81.35;99468.36;208995;1315;139205;-68
2021/12/19 21:02:03;;;;;;;5.40;2.60;;;;;;;1.13;81.25;99478.80;209055;1316;139167;-68
2021/12/19 21:07:07;;;;;;;9.70;4.40;;;;;;;1.13;81.38;99489.26;209159;1317;139643;-68
2021/12/19 21:12:19;;;;;;;5.40;3.60;;;;;;;1.16;81.10;99495.44;207317;1315;140022;-68
2021/12/19 21:22:53;;;;;;;5.70;2.60;;;;;;;1.04;81.16;99505.88;207438;1315;140070;-67
2021/12/19 21:27:57;;;;;;;12.70;4.60;;;;;;;1.02;80.83;99516.14;207294;1316;139250;-65
2021/12/19 21:33:01;;;;;;;9.50;3.20;;;;;;;1.03;80.80;99517.92;208131;1315;140553;-65
2021/12/19 21:43:37;;;;;;;6.40;2.60;;;;;;;0.99;80.86;99528.70;207202;1313;209417;-65
2021/12/19 21:48:41;;;;;;;9.60;2.20;;;;;;;0.97;81.13;99529.63;207752;1316;139320;-66
2021/12/19 21:53:47;;;;;;;5.60;3.00;;;;;;;0.99;80.93;99532.30;206758;1316;367086;-66
2021/12/19 21:58:56;;;;;;;8.20;3.60;;;;;;;1.06;81.11;99530.05;207458;1316;140837;-65
2021/12/19 22:04:04;;;;;;;5.70;2.80;;;;;;;1.08;80.88;99528.02;207474;1315;139808;-65
2021/12/19 22:09:08;;;;;;;9.70;5.60;;;;;;;1.08;80.81;99525.47;207361;1317;138982;-65
2021/12/19 22:19:40;;;;;;;13.30;3.60;;;;;;;1.00;80.72;99517.04;207970;1316;139830;-65
2021/12/19 22:24:47;;;;;;;3.60;2.30;;;;;;;0.97;80.42;99520.63;207556;1316;140462;-65
2021/12/19 22:29:51;;;;;;;7.70;4.60;;;;;;;0.91;80.35;99524.86;206961;1315;140201;-66
2021/12/19 22:34:54;;;;;;;5.90;2.30;;;;;;;0.83;80.23;99516.25;208278;1316;140326;-65
2021/12/19 22:40:06;;;;;;;8.60;4.50;;;;;;;0.72;79.92;99510.20;207867;1315;138886;-65
2021/12/19 22:45:11;;;;;;;10.80;5.50;;;;;;;0.62;79.80;99510.84;208944;1315;138986;-65
2021/12/19 22:50:15;;;;;;;10.40;8.80;;;;;;;0.55;80.28;99506.71;209176;1316;139347;-68
2021/12/19 22:55:21;;;;;;;4.10;3.70;;;;;;;0.50;80.35;99514.45;207944;1315;139617;-68
2021/12/19 23:01:00;;;;;;;8.70;2.30;;;;;;;0.48;80.34;99516.83;209444;1316;139187;-67
2021/12/19 23:06:04;;;;;;;7.00;4.10;;;;;;;0.49;80.04;99509.11;208896;1316;139999;-66
2021/12/19 23:11:12;;;;;;;7.10;3.90;;;;;;;0.48;80.42;99511.61;209513;1316;140716;-66
2021/12/19 23:21:51;;;;;;;3.90;2.70;;;;;;;0.47;80.61;99509.30;207388;1317;142411;-66
2021/12/19 23:26:54;;;;;;;4.80;3.70;;;;;;;0.49;80.39;99518.63;208311;1315;139817;-66
2021/12/19 23:31:57;;;;;;;8.70;3.40;;;;;;;0.51;80.60;99522.77;208472;1315;138658;-65
2021/12/19 23:37:19;;;;;;;8.40;4.00;;;;;;;0.49;80.52;99526.61;207884;1317;140748;-65
2021/12/19 23:42:51;;;;;;;6.40;3.40;;;;;;;0.53;80.51;99520.95;208022;1316;139678;-65
2021/12/19 23:47:55;;;;;;;7.30;4.60;;;;;;;0.58;80.70;99516.73;207845;1315;139376;-66
2021/12/19 23:52:58;;;;;;;5.70;3.70;;;;;;;0.59;80.88;99512.23;207675;1317;139399;-65
2021/12/19 23:58:02;;;;;;;6.70;3.50;;;;;;;0.60;81.04;99519.48;207837;1315;139645;-66
